Nanticoke, Maryland
Current Conditions -  °F | °C
As of 10:10 PM on Wednesday 22 Oct 2014 (Local Time) from KCGE Reporting Station
Overcast Overcast  
Wind Chill: 55°   Ceiling: 2300
Heat Index: 55°   Visibility: 0mi
Dew Point: 46°   Wind: 21mph
Humidity: 72%   Direction: 320°NW
Pressure: 29.86"   Gusts: 28mph
Location:  38.27°N, 75.91°W
Report Text: KCGE 230210Z AUTO 32018G24KT M1/4SM BKN023 OVC030 13/08 A2986 RMK AO1
Loading
Personal Weather Stations






























Interactive Weather Map
Tropical Storm Tracking
New forecast layout! Learn more

10-Day Weather Forecast

Advertisements
Track Severe Weather on mobile